Pan Joy — 3FFY4 — position and weather

sailwx.info

Track history (hours):
 
Tides and Currents Weather Stations Pressure Air Temp Water Temp Dewpoint Dewpoint Depression Visibility Wind Speed Wind Dir Waves Ship Positions

Pan Joy

Last reported at 2018-Jun-17 20:48 UTC. Time now 2018-Jun-22 11:07 UTC.
Position N 01°23' E 103°16'.

Length 292 m; draft 10.5 m.

Type: Cargo ship. MMSI: 373116000.

Date/timePositionNaut miles runAvg speedWind from/ knotsBaromVisibWave heightAir tempDewpointWater temp
2018-Jun-17 20:48N 01°23' E 103°16'912.9
2018-Jun-17 20:07N 01°17' E 103°23'212.6
2018-Jun-17 20:00N 01°16' E 103°24'612.0
2018-Jun-17 19:29N 01°13' E 103°30'511.6
2018-Jun-17 19:00N 01°12' E 103°35'611.8
2018-Jun-17 18:30N 01°10' E 103°41'510.1
2018-Jun-17 18:00N 01°09' E 103°46'611.8
2018-Jun-17 17:30N 01°12' E 103°51'612.0
2018-Jun-17 17:00N 01°14' E 103°56'612.0
2018-Jun-17 16:30N 01°16' E 104°02'3 5.9
2018-Jun-17 16:00N 01°18' E 104°04'0 0.3
2018-Jun-17 15:24N 01°18' E 104°04'0 0.6
2018-Jun-17 15:00N 01°18' E 104°04'0 0.1
2018-Jun-17 14:27N 01°18' E 104°04'0 0.2
2018-Jun-17 13:40N 01°18' E 104°04'0 0.1
2018-Jun-17 13:28N 01°18' E 104°04'0 0.1
2018-Jun-17 12:58N 01°18' E 104°04'0 0.0
2018-Jun-17 12:18N 01°18' E 104°04'0 0.0
2018-Jun-17 11:48N 01°18' E 104°04'0 0.0
2018-Jun-17 11:24N 01°18' E 104°04'0 0.1
2018-Jun-17 11:00N 01°18' E 104°04'0 0.0
2018-Jun-17 10:28N 01°18' E 104°04'0 0.0
2018-Jun-17 09:51N 01°18' E 104°04'0 0.0
2018-Jun-17 09:27N 01°18' E 104°04'0 0.0
2018-Jun-17 08:52N 01°18' E 104°04'0 0.0
2018-Jun-17 08:30N 01°18' E 104°04'0 0.0
2018-Jun-17 08:00N 01°18' E 104°04'0 0.0
2018-Jun-17 07:19N 01°18' E 104°04'0 0.0
2018-Jun-17 06:55N 01°18' E 104°04'0 0.0
2018-Jun-17 06:28N 01°18' E 104°04'0 0.2
2018-Jun-17 05:58N 01°18' E 104°04'0 0.0
2018-Jun-17 05:18N 01°18' E 104°04'0 0.0
2018-Jun-17 04:58N 01°18' E 104°04'0 0.0
2018-Jun-17 04:28N 01°18' E 104°04'0 0.1
2018-Jun-17 03:49N 01°18' E 104°04'0 0.1
2018-Jun-17 03:12N 01°18' E 104°05'0 0.3
2018-Jun-17 02:58N 01°18' E 104°05'0 0.1
2018-Jun-17 02:25N 01°18' E 104°05'0 0.0
2018-Jun-17 01:55N 01°18' E 104°05'0 0.0
2018-Jun-17 01:30N 01°18' E 104°05'0 0.0
2018-Jun-17 00:54N 01°18' E 104°05'0 0.1
2018-Jun-17 00:27N 01°18' E 104°05'0 0.0
2018-Jun-16 23:49N 01°18' E 104°05'0 0.0
2018-Jun-16 23:30N 01°18' E 104°05'0 0.0
2018-Jun-16 23:00N 01°18' E 104°05'0 0.0
2018-Jun-16 22:28N 01°18' E 104°05'0 0.0
2018-Jun-16 21:55N 01°18' E 104°05'0 0.0
2018-Jun-16 21:27N 01°18' E 104°05'0 0.0
2018-Jun-16 21:00N 01°18' E 104°05'0 0.0
2018-Jun-16 20:25N 01°18' E 104°05'0 0.1
2018-Jun-16 20:00N 01°18' E 104°05'0 0.0
2018-Jun-16 19:25N 01°18' E 104°05'0 0.0
2018-Jun-16 18:55N 01°18' E 104°05'0 0.0
2018-Jun-16 18:25N 01°18' E 104°05'0 0.1
2018-Jun-16 17:54N 01°18' E 104°05'0 0.2
2018-Jun-16 17:25N 01°18' E 104°05'0 0.4
2018-Jun-16 16:55N 01°18' E 104°04'0 0.4
2018-Jun-16 16:23N 01°18' E 104°04'2 5.3
2018-Jun-16 16:00N 01°18' E 104°06'3 5.8
2018-Jun-16 15:30N 01°17' E 104°09'3 7.0
2018-Jun-16 15:00N 01°18' E 104°13'4 7.8
2018-Jun-16 14:31N 01°18' E 104°17'4 6.8
2018-Jun-16 13:59N 01°19' E 104°20'510.7
2018-Jun-16 13:30N 01°23' E 104°24'612.7
2018-Jun-16 13:00N 01°27' E 104°29'713.2
2018-Jun-16 12:28N 01°31' E 104°34'  
Track history (hours):
 
Tides and Currents Weather Stations Pressure Air Temp Water Temp Dewpoint Dewpoint Depression Visibility Wind Speed Wind Dir Waves Ship Positions

Pan Joy

Last reported at 2018-Jun-17 20:48 UTC. Time now 2018-Jun-22 11:07 UTC.
Position N 01°23' E 103°16'.

Length 292 m; draft 10.5 m.

Type: Cargo ship. MMSI: 373116000.

Date/timePositionNaut miles runAvg speedWind from/ knotsBaromVisibWave heightAir tempDewpointWater temp
2018-Jun-17 20:48N 01°23' E 103°16'912.9
2018-Jun-17 20:07N 01°17' E 103°23'212.6
2018-Jun-17 20:00N 01°16' E 103°24'612.0
2018-Jun-17 19:29N 01°13' E 103°30'511.6
2018-Jun-17 19:00N 01°12' E 103°35'611.8
2018-Jun-17 18:30N 01°10' E 103°41'510.1
2018-Jun-17 18:00N 01°09' E 103°46'611.8
2018-Jun-17 17:30N 01°12' E 103°51'612.0
2018-Jun-17 17:00N 01°14' E 103°56'612.0
2018-Jun-17 16:30N 01°16' E 104°02'3 5.9
2018-Jun-17 16:00N 01°18' E 104°04'0 0.3
2018-Jun-17 15:24N 01°18' E 104°04'0 0.6
2018-Jun-17 15:00N 01°18' E 104°04'0 0.1
2018-Jun-17 14:27N 01°18' E 104°04'0 0.2
2018-Jun-17 13:40N 01°18' E 104°04'0 0.1
2018-Jun-17 13:28N 01°18' E 104°04'0 0.1
2018-Jun-17 12:58N 01°18' E 104°04'0 0.0
2018-Jun-17 12:18N 01°18' E 104°04'0 0.0
2018-Jun-17 11:48N 01°18' E 104°04'0 0.0
2018-Jun-17 11:24N 01°18' E 104°04'0 0.1
2018-Jun-17 11:00N 01°18' E 104°04'0 0.0
2018-Jun-17 10:28N 01°18' E 104°04'0 0.0
2018-Jun-17 09:51N 01°18' E 104°04'0 0.0
2018-Jun-17 09:27N 01°18' E 104°04'0 0.0
2018-Jun-17 08:52N 01°18' E 104°04'0 0.0
2018-Jun-17 08:30N 01°18' E 104°04'0 0.0
2018-Jun-17 08:00N 01°18' E 104°04'0 0.0
2018-Jun-17 07:19N 01°18' E 104°04'0 0.0
2018-Jun-17 06:55N 01°18' E 104°04'0 0.0
2018-Jun-17 06:28N 01°18' E 104°04'0 0.2
2018-Jun-17 05:58N 01°18' E 104°04'0 0.0
2018-Jun-17 05:18N 01°18' E 104°04'0 0.0
2018-Jun-17 04:58N 01°18' E 104°04'0 0.0
2018-Jun-17 04:28N 01°18' E 104°04'0 0.1
2018-Jun-17 03:49N 01°18' E 104°04'0 0.1
2018-Jun-17 03:12N 01°18' E 104°05'0 0.3
2018-Jun-17 02:58N 01°18' E 104°05'0 0.1
2018-Jun-17 02:25N 01°18' E 104°05'0 0.0
2018-Jun-17 01:55N 01°18' E 104°05'0 0.0
2018-Jun-17 01:30N 01°18' E 104°05'0 0.0
2018-Jun-17 00:54N 01°18' E 104°05'0 0.1
2018-Jun-17 00:27N 01°18' E 104°05'0 0.0
2018-Jun-16 23:49N 01°18' E 104°05'0 0.0
2018-Jun-16 23:30N 01°18' E 104°05'0 0.0
2018-Jun-16 23:00N 01°18' E 104°05'0 0.0
2018-Jun-16 22:28N 01°18' E 104°05'0 0.0
2018-Jun-16 21:55N 01°18' E 104°05'0 0.0
2018-Jun-16 21:27N 01°18' E 104°05'0 0.0
2018-Jun-16 21:00N 01°18' E 104°05'0 0.0
2018-Jun-16 20:25N 01°18' E 104°05'0 0.1
2018-Jun-16 20:00N 01°18' E 104°05'0 0.0
2018-Jun-16 19:25N 01°18' E 104°05'0 0.0
2018-Jun-16 18:55N 01°18' E 104°05'0 0.0
2018-Jun-16 18:25N 01°18' E 104°05'0 0.1
2018-Jun-16 17:54N 01°18' E 104°05'0 0.2
2018-Jun-16 17:25N 01°18' E 104°05'0 0.4
2018-Jun-16 16:55N 01°18' E 104°04'0 0.4
2018-Jun-16 16:23N 01°18' E 104°04'2 5.3
2018-Jun-16 16:00N 01°18' E 104°06'3 5.8
2018-Jun-16 15:30N 01°17' E 104°09'3 7.0
2018-Jun-16 15:00N 01°18' E 104°13'4 7.8
2018-Jun-16 14:31N 01°18' E 104°17'4 6.8
2018-Jun-16 13:59N 01°19' E 104°20'510.7
2018-Jun-16 13:30N 01°23' E 104°24'612.7
2018-Jun-16 13:00N 01°27' E 104°29'713.2
2018-Jun-16 12:28N 01°31' E 104°34'  

Dump ship's entire track history